Holabird, South Dakota
Current Conditions -  °F | °C
As of 10:12 AM on Friday 31 Oct 2014 (Local Time) from KPIR Reporting Station
Haze Haze  
Wind Chill: 16°   Ceiling: 100
Heat Index: 26°   Visibility: 4mi
Dew Point: 23°   Wind: 12mph
Humidity: 88%   Direction: 130°SE
Pressure: 30.54"   Gusts: NA
Location:  44.53°N, 99.6°W
Report Text: KPIR 311512Z AUTO 13010KT 4SM BR BKN001 M03/M05 A3054 RMK AO2 T10331050
Loading
Personal Weather Stations






























Interactive Weather Map
Tropical Storm Tracking
New forecast layout! Learn more

10-Day Weather Forecast

Advertisements
Track Severe Weather on mobile